Hanjin Xiamen — 3EJL6 — position and weather

sailwx.info

Track history (hours):
 
Tides and Currents Weather Stations Pressure Air Temp Water Temp Dewpoint Dewpoint Depression Visibility Wind Speed Wind Dir Waves Ship Positions

Hanjin Xiamen

Last reported at 2018-Jul-22 00:26 UTC. Time now 2018-Jul-22 16:37 UTC.
Position N 35°03' E 129°20'.

Length 304 m; draft 10.4 m.

Type: Ship (hazmat cat A). MMSI: 372557000.

Date/timePositionNaut miles runAvg speedWind from/ knotsBaromVisibWave heightAir tempDewpointWater temp
2018-Jul-22 00:26N 35°03' E 129°20'2618.1
2018-Jul-21 23:00N 34°57' E 128°49'1 0.1
2018-Jul-21 08:53N 34°59' E 128°49'3 7.5
2018-Jul-21 08:30N 34°56' E 128°51'385 8.8
2018-Jul-19 12:50N 31°05' E 122°43'720.8
2018-Jul-19 12:30N 31°06' E 122°35'815.9
2018-Jul-19 12:01N 31°06' E 122°26'713.0
2018-Jul-19 11:30N 31°06' E 122°18'815.2
2018-Jul-19 11:00N 31°10' E 122°11'814.9
2018-Jul-19 10:30N 31°14' E 122°03'714.8
2018-Jul-19 10:01N 31°16' E 121°55'714.2
2018-Jul-19 09:30N 31°18' E 121°47'5 0.2
2018-Jul-18 07:02N 31°16' E 121°53'111.5
2018-Jul-18 06:58N 31°16' E 121°54'5 9.2
2018-Jul-18 06:29N 31°15' E 121°59'510.7
2018-Jul-18 05:59N 31°14' E 122°05'610.9
2018-Jul-18 05:27N 31°11' E 122°11'510.3
2018-Jul-18 05:00N 31°08' E 122°15'4 8.2
2018-Jul-18 04:30N 31°06' E 122°19'6 8.4
2018-Jul-18 03:48N 31°07' E 122°26'3 9.2
2018-Jul-18 03:25N 31°07' E 122°30'4 8.6
2018-Jul-18 02:59N 31°07' E 122°35'12 1.5
2018-Jul-17 18:47N 31°04' E 122°48'0 0.0
2018-Jul-17 10:08N 31°04' E 122°49'0 0.0
2018-Jul-17 09:35N 31°04' E 122°49'0 0.1
2018-Jul-17 09:20N 31°04' E 122°49'0 0.1
2018-Jul-17 08:50N 31°04' E 122°49'0 0.1
2018-Jul-17 08:29N 31°04' E 122°49'0 0.0
2018-Jul-16 17:53N 31°04' E 122°48'0 0.0
2018-Jul-16 15:23N 31°04' E 122°48'0 0.1
2018-Jul-16 12:11N 31°03' E 122°49'0 0.2
2018-Jul-16 11:53N 31°03' E 122°49'0 0.0
2018-Jul-16 11:26N 31°03' E 122°49'0 0.1
2018-Jul-16 09:53N 31°04' E 122°49'0 0.0
2018-Jul-16 09:11N 31°04' E 122°49'0 0.1
2018-Jul-16 05:30N 31°04' E 122°49'0 0.0
2018-Jul-15 21:42N 31°04' E 122°49'0 0.2
2018-Jul-15 21:21N 31°04' E 122°49'0 0.1
2018-Jul-15 20:33N 31°04' E 122°49'0 0.1
2018-Jul-15 20:27N 31°04' E 122°49'0 0.1
2018-Jul-15 18:51N 31°04' E 122°49'0 0.0
2018-Jul-15 18:30N 31°04' E 122°49'0 0.2
2018-Jul-15 18:00N 31°04' E 122°49'0 0.5
2018-Jul-15 17:19N 31°04' E 122°49'2 5.6
2018-Jul-15 17:00N 31°03' E 122°51'  
Track history (hours):
 
Tides and Currents Weather Stations Pressure Air Temp Water Temp Dewpoint Dewpoint Depression Visibility Wind Speed Wind Dir Waves Ship Positions

Hanjin Xiamen

Last reported at 2018-Jul-22 00:26 UTC. Time now 2018-Jul-22 16:37 UTC.
Position N 35°03' E 129°20'.

Length 304 m; draft 10.4 m.

Type: Ship (hazmat cat A). MMSI: 372557000.

Date/timePositionNaut miles runAvg speedWind from/ knotsBaromVisibWave heightAir tempDewpointWater temp
2018-Jul-22 00:26N 35°03' E 129°20'2618.1
2018-Jul-21 23:00N 34°57' E 128°49'1 0.1
2018-Jul-21 08:53N 34°59' E 128°49'3 7.5
2018-Jul-21 08:30N 34°56' E 128°51'385 8.8
2018-Jul-19 12:50N 31°05' E 122°43'720.8
2018-Jul-19 12:30N 31°06' E 122°35'815.9
2018-Jul-19 12:01N 31°06' E 122°26'713.0
2018-Jul-19 11:30N 31°06' E 122°18'815.2
2018-Jul-19 11:00N 31°10' E 122°11'814.9
2018-Jul-19 10:30N 31°14' E 122°03'714.8
2018-Jul-19 10:01N 31°16' E 121°55'714.2
2018-Jul-19 09:30N 31°18' E 121°47'5 0.2
2018-Jul-18 07:02N 31°16' E 121°53'111.5
2018-Jul-18 06:58N 31°16' E 121°54'5 9.2
2018-Jul-18 06:29N 31°15' E 121°59'510.7
2018-Jul-18 05:59N 31°14' E 122°05'610.9
2018-Jul-18 05:27N 31°11' E 122°11'510.3
2018-Jul-18 05:00N 31°08' E 122°15'4 8.2
2018-Jul-18 04:30N 31°06' E 122°19'6 8.4
2018-Jul-18 03:48N 31°07' E 122°26'3 9.2
2018-Jul-18 03:25N 31°07' E 122°30'4 8.6
2018-Jul-18 02:59N 31°07' E 122°35'12 1.5
2018-Jul-17 18:47N 31°04' E 122°48'0 0.0
2018-Jul-17 10:08N 31°04' E 122°49'0 0.0
2018-Jul-17 09:35N 31°04' E 122°49'0 0.1
2018-Jul-17 09:20N 31°04' E 122°49'0 0.1
2018-Jul-17 08:50N 31°04' E 122°49'0 0.1
2018-Jul-17 08:29N 31°04' E 122°49'0 0.0
2018-Jul-16 17:53N 31°04' E 122°48'0 0.0
2018-Jul-16 15:23N 31°04' E 122°48'0 0.1
2018-Jul-16 12:11N 31°03' E 122°49'0 0.2
2018-Jul-16 11:53N 31°03' E 122°49'0 0.0
2018-Jul-16 11:26N 31°03' E 122°49'0 0.1
2018-Jul-16 09:53N 31°04' E 122°49'0 0.0
2018-Jul-16 09:11N 31°04' E 122°49'0 0.1
2018-Jul-16 05:30N 31°04' E 122°49'0 0.0
2018-Jul-15 21:42N 31°04' E 122°49'0 0.2
2018-Jul-15 21:21N 31°04' E 122°49'0 0.1
2018-Jul-15 20:33N 31°04' E 122°49'0 0.1
2018-Jul-15 20:27N 31°04' E 122°49'0 0.1
2018-Jul-15 18:51N 31°04' E 122°49'0 0.0
2018-Jul-15 18:30N 31°04' E 122°49'0 0.2
2018-Jul-15 18:00N 31°04' E 122°49'0 0.5
2018-Jul-15 17:19N 31°04' E 122°49'2 5.6
2018-Jul-15 17:00N 31°03' E 122°51'  

Dump ship's entire track history